createdAt,value
2016-07-26T00:00:09.555Z,72.37
2016-07-26T00:01:09.563Z,72.47
2016-07-26T00:02:09.576Z,72.47
2016-07-26T00:03:09.581Z,72.63
2016-07-26T00:04:09.595Z,72.24
2016-07-26T00:05:09.605Z,72.63
2016-07-26T00:06:09.616Z,72.81
2016-07-26T00:07:09.826Z,72.91
2016-07-26T00:08:09.835Z,72.91
2016-07-26T00:09:09.854Z,72.91
2016-07-26T00:10:09.661Z,72.91
2016-07-26T00:11:09.684Z,73.01
2016-07-26T00:12:09.675Z,72.63
2016-07-26T00:13:09.889Z,72.81
2016-07-26T00:14:09.720Z,73.1
2016-07-26T00:15:09.708Z,73.1
2016-07-26T00:16:09.721Z,73.49
2016-07-26T00:17:09.725Z,73.3
2016-07-26T00:18:09.945Z,73.01
2016-07-26T00:19:10.027Z,72.81
2016-07-26T00:20:09.758Z,72.81
2016-07-26T00:21:09.770Z,72.91
2016-07-26T00:22:09.778Z,72.91
2016-07-26T00:23:24.654Z,72.78
2016-07-26T00:24:09.804Z,72.97
2016-07-26T00:25:09.827Z,73.36
2016-07-26T00:26:09.815Z,73.36
2016-07-26T00:27:09.826Z,73.36
2016-07-26T00:28:09.836Z,73.26
2016-07-26T00:30:09.860Z,73.46
2016-07-26T00:31:10.070Z,73.36
2016-07-26T00:32:09.901Z,73.46
2016-07-26T00:33:10.618Z,73.46
2016-07-26T00:34:09.899Z,73.84
2016-07-26T00:35:09.915Z,73.55
2016-07-26T00:36:09.923Z,73.84
2016-07-26T00:37:09.937Z,73.55
2016-07-26T00:38:09.938Z,73.46
2016-07-26T00:39:09.943Z,73.55
2016-07-26T00:40:09.970Z,73.55
2016-07-26T00:41:09.972Z,73.65
2016-07-26T00:42:10.204Z,73.65
2016-07-26T00:43:09.997Z,73.46
2016-07-26T00:44:09.991Z,73.55
2016-07-26T00:45:10.000Z,73.46
2016-07-26T00:46:10.016Z,73.55
2016-07-26T00:47:10.752Z,73.94
2016-07-26T00:48:10.036Z,73.55
2016-07-26T00:49:10.787Z,73.74
2016-07-26T00:50:10.062Z,74.13
2016-07-26T00:51:10.264Z,73.94
2016-07-26T00:52:10.070Z,74.32
2016-07-26T00:53:10.082Z,74.03
2016-07-26T00:54:10.096Z,74.8
2016-07-26T00:55:10.104Z,74.32
2016-07-26T00:56:10.110Z,74.03
2016-07-26T00:57:10.119Z,74.48
2016-07-26T00:58:10.158Z,74.41
2016-07-26T00:59:10.139Z,73.9
2016-07-26T01:00:10.151Z,74.19
2016-07-26T01:01:10.174Z,74.19
2016-07-26T01:02:10.255Z,74.09
2016-07-26T01:03:10.176Z,74.48
2016-07-26T01:04:10.185Z,73.8
2016-07-26T01:05:25.066Z,73.9
2016-07-26T01:06:10.206Z,74.38
2016-07-26T01:07:10.214Z,74.57
2016-07-26T01:08:11.136Z,74.38
2016-07-26T01:09:10.233Z,74.38
2016-07-26T01:10:10.677Z,74.96
2016-07-26T01:11:10.253Z,74.96
2016-07-26T01:12:10.264Z,74.67
2016-07-26T01:13:10.294Z,74.86
2016-07-26T01:14:10.290Z,74.76
2016-07-26T01:15:10.305Z,74.96
2016-07-26T01:16:10.307Z,74.96
2016-07-26T01:17:10.314Z,75.05
2016-07-26T01:18:11.282Z,74.76
2016-07-26T01:19:10.378Z,74.96
2016-07-26T01:20:10.340Z,74.67
2016-07-26T01:21:10.351Z,74.86
2016-07-26T01:22:10.360Z,74.96
2016-07-26T01:23:11.523Z,75.05
2016-07-26T01:24:10.399Z,75.15
2016-07-26T01:25:10.588Z,74.76
2016-07-26T01:26:11.121Z,74.67
2016-07-26T01:27:10.410Z,74.76
2016-07-26T01:28:10.414Z,74.76
2016-07-26T01:29:11.169Z,75.05
2016-07-26T01:30:10.645Z,75.05
2016-07-26T01:31:10.448Z,74.96
2016-07-26T01:32:10.458Z,74.57
2016-07-26T01:33:10.461Z,74.76
2016-07-26T01:34:10.475Z,74.96
2016-07-26T01:35:10.501Z,74.96
2016-07-26T01:36:10.492Z,74.76
2016-07-26T01:37:10.503Z,74.57
2016-07-26T01:38:10.512Z,74.76
2016-07-26T01:39:10.522Z,74.76
2016-07-26T01:40:10.735Z,74.76
2016-07-26T01:41:11.270Z,75.34
2016-07-26T01:42:10.556Z,74.76
2016-07-26T01:43:10.561Z,75.05
2016-07-26T01:44:10.587Z,74.96
2016-07-26T01:45:10.584Z,74.67
2016-07-26T01:46:10.598Z,75.44
2016-07-26T01:47:10.597Z,75.82
2016-07-26T01:48:10.606Z,75.05
2016-07-26T01:49:10.619Z,75.24
2016-07-26T01:50:10.628Z,75.34
2016-07-26T01:51:10.637Z,75.05
2016-07-26T01:52:10.647Z,75.05
2016-07-26T01:53:10.663Z,75.82
2016-07-26T01:54:10.675Z,75.73
2016-07-26T01:55:10.682Z,75.63
2016-07-26T01:56:10.686Z,75.92
2016-07-26T01:57:10.719Z,75.73
2016-07-26T01:58:10.716Z,75.63
2016-07-26T01:59:10.727Z,75.24
2016-07-26T02:00:10.721Z,75.44
2016-07-26T02:01:10.740Z,75.73
2016-07-26T02:02:10.744Z,75.69
2016-07-26T02:03:11.503Z,75.73
2016-07-26T02:04:10.765Z,75.73
2016-07-26T02:05:10.769Z,75.73
2016-07-26T02:06:10.779Z,75.73
2016-07-26T02:07:11.517Z,75.82
2016-07-26T02:08:11.525Z,75.69
2016-07-26T02:09:10.808Z,75.98
2016-07-26T02:10:10.821Z,75.82
2016-07-26T02:11:10.830Z,75.88
2016-07-26T02:12:10.838Z,76.11
2016-07-26T02:13:10.849Z,76.56
2016-07-26T02:14:10.854Z,76.65
2016-07-26T02:15:10.867Z,76.26
2016-07-26T02:16:10.877Z,76.46
2016-07-26T02:17:10.892Z,76.46
2016-07-26T02:18:10.893Z,76.07
2016-07-26T02:19:10.909Z,76.56
2016-07-26T02:20:10.911Z,76.46
2016-07-26T02:21:10.927Z,76.59
2016-07-26T02:22:10.938Z,76.26
2016-07-26T02:23:10.944Z,76.94
2016-07-26T02:24:10.948Z,76.75
2016-07-26T02:25:10.965Z,76.56
2016-07-26T02:26:11.706Z,76.94
2016-07-26T02:27:10.980Z,76.75
2016-07-26T02:28:10.998Z,76.84
2016-07-26T02:29:11.735Z,76.56
2016-07-26T02:30:11.016Z,77.04
2016-07-26T02:31:11.019Z,76.84
2016-07-26T02:32:11.033Z,76.36
2016-07-26T02:33:11.040Z,76.98
2016-07-26T02:34:11.043Z,76.69
2016-07-26T02:35:11.155Z,76.98
2016-07-26T02:36:11.066Z,76.69
2016-07-26T02:37:12.223Z,76.88
2016-07-26T02:38:11.283Z,76.94
2016-07-26T02:39:11.089Z,76.21
2016-07-26T02:40:11.106Z,76.75
2016-07-26T02:41:11.107Z,76.84
2016-07-26T02:42:12.059Z,77.04
2016-07-26T02:43:11.127Z,76.84
2016-07-26T02:44:11.137Z,76.46
2016-07-26T02:45:11.161Z,76.94
2016-07-26T02:46:11.175Z,77.04
2016-07-26T02:47:11.379Z,77.13
2016-07-26T02:48:11.176Z,77.04
2016-07-26T02:49:11.396Z,76.75
2016-07-26T02:50:11.924Z,77.04
2016-07-26T02:51:12.176Z,76.75
2016-07-26T02:52:11.212Z,76.56
2016-07-26T02:53:12.171Z,76.75
2016-07-26T02:54:11.232Z,77.36
2016-07-26T02:55:11.495Z,77.13
2016-07-26T02:56:11.450Z,77.04
2016-07-26T02:57:11.259Z,77.04
2016-07-26T02:58:11.470Z,77.04
2016-07-26T02:59:11.282Z,77.23
2016-07-26T03:00:11.287Z,77.04
2016-07-26T03:01:11.298Z,76.94
2016-07-26T03:02:11.307Z,77.51
2016-07-26T03:03:11.317Z,77.51
2016-07-26T03:05:11.331Z,77.42
2016-07-26T03:06:11.345Z,77.46
2016-07-26T03:07:12.082Z,76.94
2016-07-26T03:08:11.363Z,76.94
2016-07-26T03:09:11.371Z,77.23
2016-07-26T03:10:11.413Z,77.33
2016-07-26T03:11:11.390Z,77.13
2016-07-26T03:12:11.415Z,77.51
2016-07-26T03:13:11.416Z,77.51
2016-07-26T03:14:11.421Z,77.42
2016-07-26T03:15:11.426Z,77.42
2016-07-26T03:16:11.451Z,77.23
2016-07-26T03:17:11.450Z,76.84
2016-07-26T03:18:11.461Z,76.75
2016-07-26T03:20:11.477Z,77.08
2016-07-26T03:21:11.483Z,77.23
2016-07-26T03:22:11.695Z,76.94
2016-07-26T03:23:11.503Z,77.33
2016-07-26T03:24:11.713Z,77.33
2016-07-26T03:25:12.279Z,76.88
2016-07-26T03:26:11.532Z,77.42
2016-07-26T03:27:11.549Z,76.98
2016-07-26T03:28:11.580Z,77.36
2016-07-26T03:29:11.563Z,77.51
2016-07-26T03:30:11.566Z,77.65
2016-07-26T03:31:11.579Z,77.71
2016-07-26T03:32:11.596Z,77.9
2016-07-26T03:33:11.599Z,77.9
2016-07-26T03:35:11.628Z,77.71
2016-07-26T03:36:11.628Z,77.9
2016-07-26T03:37:12.368Z,77.61
2016-07-26T03:38:11.645Z,77.61
2016-07-26T03:39:12.380Z,78.13
2016-07-26T03:40:11.668Z,78
2016-07-26T03:41:12.279Z,77.9
2016-07-26T03:42:12.410Z,78.09
2016-07-26T03:43:11.702Z,78
2016-07-26T03:44:11.700Z,78.09
2016-07-26T03:45:11.717Z,78
2016-07-26T03:46:11.720Z,78
2016-07-26T03:47:11.726Z,78
2016-07-26T03:48:11.744Z,78.28
2016-07-26T03:49:11.745Z,77.61
2016-07-26T03:50:11.761Z,77.9
2016-07-26T03:51:11.831Z,78
2016-07-26T03:52:11.776Z,78.38
2016-07-26T03:53:11.787Z,78.28
2016-07-26T03:54:11.795Z,78.19
2016-07-26T03:55:11.807Z,78.28
2016-07-26T03:56:11.813Z,77.9
2016-07-26T03:57:12.555Z,77.71
2016-07-26T03:58:11.832Z,78.28
2016-07-26T03:59:11.914Z,77.51
2016-07-26T04:00:11.850Z,77.81
2016-07-26T04:01:11.860Z,78
2016-07-26T04:02:11.881Z,78.13
2016-07-26T04:03:11.879Z,78.33
2016-07-26T04:04:12.611Z,78.33
2016-07-26T04:05:11.897Z,78.23
2016-07-26T04:06:12.135Z,78.33
2016-07-26T04:07:11.939Z,78.23
2016-07-26T04:08:11.949Z,78.03
2016-07-26T04:09:11.945Z,77.75
2016-07-26T04:10:11.950Z,77.56
2016-07-26T04:11:11.963Z,77.75
2016-07-26T04:12:11.971Z,77.84
2016-07-26T04:13:11.978Z,77.65
2016-07-26T04:14:11.985Z,78.23
2016-07-26T04:15:12.149Z,78.81
2016-07-26T04:16:12.104Z,78.23
2016-07-26T04:17:12.011Z,78.33
2016-07-26T04:18:12.027Z,78.23
2016-07-26T04:19:12.051Z,78.13
2016-07-26T04:20:12.043Z,78.03
2016-07-26T04:21:12.050Z,78.13
2016-07-26T04:22:12.064Z,77.84
2016-07-26T04:23:12.795Z,77.94
2016-07-26T04:24:12.326Z,77.75
2016-07-26T04:25:12.821Z,78.23
2016-07-26T04:26:12.103Z,77.56
2016-07-26T04:27:12.831Z,77.65
2016-07-26T04:28:12.121Z,78.03
2016-07-26T04:29:12.862Z,78.03
2016-07-26T04:30:12.141Z,77.65
2016-07-26T04:31:12.152Z,78.23
2016-07-26T04:32:12.159Z,77.56
2016-07-26T04:33:12.169Z,77.75
2016-07-26T04:34:12.181Z,77.84
2016-07-26T04:36:12.197Z,78.23
2016-07-26T04:37:12.209Z,78.03
2016-07-26T04:38:12.223Z,78.33
2016-07-26T04:39:12.238Z,78.03
2016-07-26T04:40:12.236Z,78.23
2016-07-26T04:41:27.345Z,77.69
2016-07-26T04:42:12.254Z,77.75
2016-07-26T04:43:12.268Z,77.65
2016-07-26T04:44:12.280Z,77.78
2016-07-26T04:45:12.292Z,77.5
2016-07-26T04:46:12.296Z,77.88
2016-07-26T04:47:12.305Z,77.78
2016-07-26T04:48:12.315Z,77.59
2016-07-26T04:49:12.327Z,77.88
2016-07-26T04:50:12.335Z,77.69
2016-07-26T04:51:12.351Z,77.5
2016-07-26T04:52:12.366Z,77.31
2016-07-26T04:53:12.371Z,77.21
2016-07-26T04:54:12.385Z,77.5
2016-07-26T04:55:12.436Z,77.5
2016-07-26T04:56:12.398Z,77.59
2016-07-26T04:57:12.404Z,77.78
2016-07-26T04:58:12.420Z,77.5
2016-07-26T04:59:12.429Z,77.31
2016-07-26T05:00:12.440Z,77.31
2016-07-26T05:01:13.397Z,77.5
2016-07-26T05:02:13.195Z,76.92
2016-07-26T05:03:13.203Z,77.11
2016-07-26T05:04:12.479Z,76.92
2016-07-26T05:05:12.492Z,76.92
2016-07-26T05:06:13.234Z,76.92
2016-07-26T05:07:13.476Z,76.73
2016-07-26T05:08:12.719Z,76.92
2016-07-26T05:09:12.766Z,77.06
2016-07-26T05:10:12.540Z,77.06
2016-07-26T05:11:12.550Z,77.44
2016-07-26T05:12:12.558Z,77.06
2016-07-26T05:13:12.570Z,76.86
2016-07-26T05:14:12.585Z,76.96
2016-07-26T05:15:12.594Z,76.76
2016-07-26T05:16:12.802Z,76.96
2016-07-26T05:17:12.641Z,76.76
2016-07-26T05:18:12.622Z,76.38
2016-07-26T05:19:12.834Z,76.48
2016-07-26T05:20:12.644Z,76.09
2016-07-26T05:22:12.673Z,76.18
2016-07-26T05:23:12.685Z,76.09
2016-07-26T05:24:12.719Z,76.61
2016-07-26T05:25:12.695Z,76.48
2016-07-26T05:26:27.579Z,76.51
2016-07-26T05:27:12.718Z,76.51
2016-07-26T05:28:13.467Z,76.51
2016-07-26T05:29:13.475Z,76.13
2016-07-26T05:30:13.480Z,76.61
2016-07-26T05:31:12.772Z,76.42
2016-07-26T05:32:12.781Z,76.23
2016-07-26T05:33:13.517Z,76.32
2016-07-26T05:34:12.802Z,75.84
2016-07-26T05:35:27.875Z,75.84
2016-07-26T05:36:13.020Z,75.93
2016-07-26T05:37:13.577Z,75.97
2016-07-26T05:38:13.584Z,76.07
2016-07-26T05:39:13.587Z,76.17
2016-07-26T05:40:13.616Z,75.88
2016-07-26T05:41:12.875Z,76.07
2016-07-26T05:42:12.886Z,75.3
2016-07-26T05:43:12.897Z,75.59
2016-07-26T05:44:12.915Z,75.49
2016-07-26T05:45:12.918Z,74.91
2016-07-26T05:46:12.933Z,75.92
2016-07-26T05:47:13.142Z,75.72
2016-07-26T05:48:12.964Z,76.01
2016-07-26T05:49:12.973Z,75.82
2016-07-26T05:50:12.984Z,75.82
2016-07-26T05:51:12.987Z,75.82
2016-07-26T05:52:13.001Z,75.82
2016-07-26T05:53:13.016Z,74.95
2016-07-26T05:54:13.771Z,74.76
2016-07-26T05:55:13.031Z,75.05
2016-07-26T05:56:13.253Z,74.27
2016-07-26T05:57:13.081Z,74.51
2016-07-26T05:58:13.078Z,74.51
2016-07-26T05:59:13.286Z,74.47
2016-07-26T06:00:13.303Z,74.41
2016-07-26T06:02:13.132Z,74.6
2016-07-26T06:04:13.139Z,74.41
2016-07-26T06:05:13.151Z,74.41
2016-07-26T06:06:13.167Z,73.83
2016-07-26T06:07:13.176Z,73.83
2016-07-26T06:08:13.212Z,74.21
2016-07-26T06:09:13.206Z,73.83
2016-07-26T06:10:13.958Z,74.02
2016-07-26T06:11:13.227Z,74.21
2016-07-26T06:12:13.243Z,73.86
2016-07-26T06:13:28.319Z,74.16
2016-07-26T06:14:13.998Z,73.67
2016-07-26T06:15:13.998Z,73.86
2016-07-26T06:16:14.059Z,73.67
2016-07-26T06:17:13.297Z,73.77
2016-07-26T06:18:13.311Z,73.67
2016-07-26T06:19:13.321Z,72.61
2016-07-26T06:20:13.339Z,72.71
2016-07-26T06:21:13.365Z,73.22
2016-07-26T06:22:13.362Z,72.74
2016-07-26T06:23:13.372Z,73.52
2016-07-26T06:25:14.330Z,72.84
2016-07-26T06:26:14.168Z,72.84
2016-07-26T06:27:14.164Z,72.88
2016-07-26T06:28:13.638Z,73.32
2016-07-26T06:29:13.468Z,72.94
2016-07-26T06:30:13.459Z,72.45
2016-07-26T06:31:13.473Z,73.07
2016-07-26T06:32:13.487Z,72.68
2016-07-26T06:33:13.780Z,72.39
2016-07-26T06:34:13.510Z,72.2
2016-07-26T06:35:14.251Z,72.1
2016-07-26T06:37:13.553Z,72.1
2016-07-26T06:38:13.564Z,72.3
2016-07-26T06:39:13.603Z,72.1
2016-07-26T06:40:13.817Z,71.62
2016-07-26T06:41:13.613Z,71.72
2016-07-26T06:42:14.348Z,71.62
2016-07-26T06:43:13.646Z,71.52
2016-07-26T06:44:14.600Z,71.52
2016-07-26T06:45:14.425Z,71.72
2016-07-26T06:46:14.619Z,71.72
2016-07-26T06:47:14.221Z,71.62
2016-07-26T06:48:13.702Z,71.75
2016-07-26T06:49:13.939Z,71.17
2016-07-26T06:50:28.589Z,71.26
2016-07-26T06:51:14.479Z,70.98
2016-07-26T06:52:14.485Z,71.08
2016-07-26T06:53:14.318Z,71.26
2016-07-26T06:54:13.771Z,71.08
2016-07-26T06:55:13.783Z,71.36
2016-07-26T06:56:13.801Z,70.59
2016-07-26T06:57:13.813Z,71.36
2016-07-26T06:58:13.840Z,70.68
2016-07-26T06:59:13.983Z,70.5
2016-07-26T07:00:13.854Z,70.5
2016-07-26T07:01:13.870Z,70.53
2016-07-26T07:03:14.639Z,70.88
2016-07-26T07:04:14.630Z,70.5
2016-07-26T07:05:13.919Z,70.53
2016-07-26T07:06:14.239Z,70.82
2016-07-26T07:07:13.948Z,70.53
2016-07-26T07:08:13.962Z,70.92
2016-07-26T07:09:13.971Z,70.72
2016-07-26T07:10:13.984Z,70.92
2016-07-26T07:11:14.005Z,70.53
2016-07-26T07:12:14.011Z,70.72
2016-07-26T07:13:14.772Z,70.92
2016-07-26T07:14:14.035Z,70.72
2016-07-26T07:16:14.088Z,70.92
2016-07-26T07:17:14.079Z,70.14
2016-07-26T07:19:14.104Z,70.82
2016-07-26T07:20:14.126Z,70.14
2016-07-26T07:21:15.071Z,70.72
2016-07-26T07:22:15.080Z,70.82
2016-07-26T07:23:15.107Z,70.08
2016-07-26T07:24:14.907Z,70.14
2016-07-26T07:25:14.916Z,70.62
2016-07-26T07:26:14.404Z,70.56
2016-07-26T07:27:14.213Z,70.37
2016-07-26T07:28:14.235Z,70.76
2016-07-26T07:29:15.168Z,71.04
2016-07-26T07:30:14.254Z,69.69
2016-07-26T07:31:14.268Z,69.79
2016-07-26T07:32:14.276Z,70.08
2016-07-26T07:33:14.313Z,69.4
2016-07-26T07:34:14.304Z,68.82
2016-07-26T07:35:15.169Z,69.4
2016-07-26T07:36:14.356Z,69.5
2016-07-26T07:37:15.249Z,69.63
2016-07-26T07:38:15.101Z,69.43
2016-07-26T07:39:15.127Z,69.43
2016-07-26T07:40:15.126Z,68.95
2016-07-26T07:41:14.421Z,68.95
2016-07-26T07:42:15.150Z,68.47
2016-07-26T07:43:14.432Z,68.47
2016-07-26T07:44:14.443Z,68.6
2016-07-26T07:45:14.478Z,67.92
2016-07-26T07:46:14.475Z,68.12
2016-07-26T07:47:14.488Z,68.4
2016-07-26T07:48:14.505Z,67.92
2016-07-26T07:49:14.515Z,67.92
2016-07-26T07:50:14.541Z,68.4
2016-07-26T07:51:14.566Z,68.05
2016-07-26T07:52:14.567Z,67.66
2016-07-26T07:53:15.327Z,68.24
2016-07-26T07:54:14.589Z,68.05
2016-07-26T07:55:14.651Z,66.79
2016-07-26T07:56:15.355Z,67.47
2016-07-26T07:57:15.356Z,67.27
2016-07-26T07:58:14.873Z,67.37
2016-07-26T07:59:14.660Z,66.89
2016-07-26T08:00:14.674Z,67.08
2016-07-26T08:01:14.892Z,66.79
2016-07-26T08:02:14.707Z,66.5
2016-07-26T08:04:14.744Z,67.08
2016-07-26T08:05:14.761Z,67.47
2016-07-26T08:06:14.771Z,67.11
2016-07-26T08:07:15.555Z,66.63
2016-07-26T08:08:14.798Z,66.53
2016-07-26T08:09:15.539Z,67.02
2016-07-26T08:10:14.819Z,66.63
2016-07-26T08:11:14.841Z,66.82
2016-07-26T08:12:14.856Z,66.44
2016-07-26T08:13:14.869Z,66.72
2016-07-26T08:14:14.895Z,66.53
2016-07-26T08:15:14.909Z,66.34
2016-07-26T08:16:14.911Z,65.85
2016-07-26T08:17:14.929Z,65.85
2016-07-26T08:18:14.951Z,65.95
2016-07-26T08:19:14.959Z,65.01
2016-07-26T08:20:15.183Z,65.27
2016-07-26T08:21:14.991Z,65.3
2016-07-26T08:22:15.005Z,65.69
2016-07-26T08:23:15.016Z,64.98
2016-07-26T08:24:15.035Z,65.11
2016-07-26T08:25:15.051Z,65.89
2016-07-26T08:26:15.067Z,65.79
2016-07-26T08:27:15.078Z,65.01
2016-07-26T08:28:15.093Z,65.11
2016-07-26T08:29:15.107Z,66.17
2016-07-26T08:30:15.148Z,65.2
2016-07-26T08:31:15.146Z,65.3
2016-07-26T08:32:15.168Z,64.92
2016-07-26T08:33:15.380Z,65.2
2016-07-26T08:34:15.911Z,64.85
2016-07-26T08:35:15.227Z,64.62
2016-07-26T08:36:15.943Z,64.65
2016-07-26T08:37:15.230Z,65.11
2016-07-26T08:38:15.247Z,65.01
2016-07-26T08:39:15.266Z,64.72
2016-07-26T08:40:15.292Z,64.43
2016-07-26T08:41:15.291Z,64.82
2016-07-26T08:42:15.336Z,64.33
2016-07-26T08:43:15.331Z,64.62
2016-07-26T08:44:15.347Z,65.2
2016-07-26T08:45:15.376Z,64.92
2016-07-26T08:46:15.374Z,64.82
2016-07-26T08:47:16.112Z,64.72
2016-07-26T08:48:16.139Z,64.04
2016-07-26T08:49:16.142Z,64.82
2016-07-26T08:50:15.431Z,65.3
2016-07-26T08:51:15.645Z,65.11
2016-07-26T08:52:15.461Z,64.53
2016-07-26T08:53:16.232Z,64.14
2016-07-26T08:54:15.487Z,64.14
2016-07-26T08:55:15.604Z,64.82
2016-07-26T08:56:16.415Z,64.14
2016-07-26T08:57:15.542Z,64.53
2016-07-26T08:58:16.287Z,64.53
2016-07-26T08:59:16.295Z,64.14
2016-07-26T09:00:15.599Z,64.65
2016-07-26T09:01:15.599Z,63.68
2016-07-26T09:02:16.353Z,64.56
2016-07-26T09:03:15.625Z,64.36
2016-07-26T09:04:15.642Z,64.26
2016-07-26T09:05:15.658Z,64.26
2016-07-26T09:06:15.898Z,64.26
2016-07-26T09:07:15.717Z,63.78
2016-07-26T09:08:15.712Z,63.49
2016-07-26T09:09:15.720Z,64.26
2016-07-26T09:10:16.482Z,63.68
2016-07-26T09:11:15.751Z,63.78
2016-07-26T09:12:15.762Z,64.07
2016-07-26T09:13:15.784Z,63.81
2016-07-26T09:14:15.797Z,63.52
2016-07-26T09:15:16.546Z,62.84
2016-07-26T09:16:16.749Z,62.94
2016-07-26T09:17:15.841Z,63.42
2016-07-26T09:18:15.862Z,63.71
2016-07-26T09:19:15.900Z,63.32
2016-07-26T09:20:15.887Z,63.36
2016-07-26T09:21:15.913Z,63.81
2016-07-26T09:22:15.923Z,62.84
2016-07-26T09:23:16.672Z,63.04
2016-07-26T09:24:16.691Z,62.45
2016-07-26T09:25:15.976Z,62.68
2016-07-26T09:26:15.985Z,62.65
2016-07-26T09:27:16.202Z,62.94
2016-07-26T09:28:16.222Z,63.04
2016-07-26T09:29:16.033Z,63.23
2016-07-26T09:30:16.044Z,62.97
2016-07-26T09:31:16.061Z,63.23
2016-07-26T09:32:16.081Z,63.32
2016-07-26T09:33:16.100Z,63.07
2016-07-26T09:34:16.107Z,63.36
2016-07-26T09:35:16.129Z,63.26
2016-07-26T09:36:16.886Z,62.77
2016-07-26T09:37:16.189Z,63.13
2016-07-26T09:38:16.172Z,63.17
2016-07-26T09:39:16.185Z,63.45
2016-07-26T09:40:16.407Z,63.45
2016-07-26T09:41:16.959Z,63.75
2016-07-26T09:42:16.237Z,63.36
2016-07-26T09:43:16.251Z,62.97
2016-07-26T09:44:16.469Z,63.26
2016-07-26T09:45:16.292Z,63.07
2016-07-26T09:46:16.300Z,62.97
2016-07-26T09:47:17.063Z,63.17
2016-07-26T09:48:17.081Z,62.77
2016-07-26T09:49:16.347Z,62.77
2016-07-26T09:50:17.094Z,62.68
2016-07-26T09:51:16.379Z,62.81
2016-07-26T09:52:16.404Z,62.71
2016-07-26T09:53:17.144Z,62.71
2016-07-26T09:54:16.430Z,61.54
2016-07-26T09:55:16.445Z,61.64
2016-07-26T09:56:16.472Z,61.93
2016-07-26T09:57:16.686Z,62.71
2016-07-26T09:58:16.489Z,62.23
2016-07-26T09:59:17.233Z,60.67
2016-07-26T10:00:16.521Z,61.54
2016-07-26T10:01:16.536Z,61.54
2016-07-26T10:02:16.557Z,61.57
2016-07-26T10:03:16.583Z,61.67
2016-07-26T10:05:17.349Z,61.47
2016-07-26T10:06:17.029Z,61.28
2016-07-26T10:07:31.500Z,62.26
2016-07-26T10:08:16.662Z,61.57
2016-07-26T10:09:16.700Z,61.57
2016-07-26T10:10:17.421Z,61.18
2016-07-26T10:11:16.699Z,61.7
2016-07-26T10:12:16.723Z,61.08
2016-07-26T10:14:16.754Z,61.02
2016-07-26T10:15:16.775Z,60.82
2016-07-26T10:16:31.666Z,60.92
2016-07-26T10:17:17.537Z,60.92
2016-07-26T10:18:16.828Z,60.72
2016-07-26T10:20:17.053Z,60.63
2016-07-26T10:21:17.598Z,60.44
2016-07-26T10:22:16.878Z,61.02
2016-07-26T10:23:16.890Z,60.63
2016-07-26T10:24:16.932Z,60.08
2016-07-26T10:25:31.795Z,60.66
2016-07-26T10:26:16.943Z,61.15
2016-07-26T10:27:17.161Z,60.46
2016-07-26T10:28:17.907Z,60.17
2016-07-26T10:29:17.727Z,59.59
2016-07-26T10:30:31.893Z,58.51
2016-07-26T10:31:17.031Z,58.51
2016-07-26T10:32:17.451Z,57.84
2016-07-26T10:33:17.806Z,58.61
2016-07-26T10:35:17.106Z,58.61
2016-07-26T10:36:17.336Z,59.2
2016-07-26T10:37:17.897Z,59.2
2016-07-26T10:38:17.868Z,58.51
2016-07-26T10:39:17.906Z,58.81
2016-07-26T10:40:17.907Z,58.03
2016-07-26T10:41:17.201Z,57.84
2016-07-26T10:42:17.209Z,58.03
2016-07-26T10:43:17.522Z,58.71
2016-07-26T10:44:18.194Z,58.71
2016-07-26T10:45:17.259Z,58.35
2016-07-26T10:46:17.284Z,57.93
2016-07-26T10:47:17.294Z,58.51
2016-07-26T10:48:17.309Z,58.94
2016-07-26T10:49:17.332Z,58.54
2016-07-26T10:50:17.542Z,56.6
2016-07-26T10:51:17.592Z,57.28
2016-07-26T10:52:17.381Z,57.37
2016-07-26T10:53:17.397Z,56.99
2016-07-26T10:54:18.147Z,56.6
2016-07-26T10:56:17.456Z,56.79
2016-07-26T10:57:17.463Z,56.79
2016-07-26T10:58:17.477Z,57.18
2016-07-26T10:59:17.497Z,55.82
2016-07-26T11:00:17.719Z,56.5
2016-07-26T11:01:18.479Z,56.89
2016-07-26T11:02:17.553Z,56.57
2016-07-26T11:03:17.560Z,56.57
2016-07-26T11:05:17.804Z,56.57
2016-07-26T11:06:17.620Z,57.25
2016-07-26T11:07:17.627Z,56.76
2016-07-26T11:08:17.650Z,56.01
2016-07-26T11:09:17.669Z,55.5
2016-07-26T11:10:17.696Z,55.5
2016-07-26T11:11:18.100Z,56.09
2016-07-26T11:12:17.721Z,56.37
2016-07-26T11:13:18.451Z,56.27
2016-07-26T11:14:32.610Z,54.13
2016-07-26T11:15:18.496Z,54.33
2016-07-26T11:16:17.779Z,55.6
2016-07-26T11:17:17.792Z,55.69
2016-07-26T11:18:17.814Z,56.27
2016-07-26T11:21:17.872Z,55.99
2016-07-26T11:22:17.872Z,56.18
2016-07-26T11:23:17.912Z,56.37
2016-07-26T11:24:18.655Z,56.27
2016-07-26T11:25:17.922Z,56.37
2016-07-26T11:26:18.682Z,56.37
2016-07-26T11:27:18.691Z,56.09
2016-07-26T11:28:17.968Z,56.27
2016-07-26T11:29:17.988Z,55.5
2016-07-26T11:30:18.005Z,56.18
2016-07-26T11:31:18.017Z,56.18
2016-07-26T11:32:18.039Z,55.11
2016-07-26T11:33:18.052Z,55.4
2016-07-26T11:34:32.937Z,56.09
2016-07-26T11:35:18.094Z,55.99
2016-07-26T11:36:33.171Z,55.99
2016-07-26T11:38:18.138Z,56.37
2016-07-26T11:39:33.220Z,56.37
2016-07-26T11:40:18.165Z,56.96
2016-07-26T11:41:18.185Z,56.47
2016-07-26T11:42:18.201Z,56.86
2016-07-26T11:43:18.215Z,56.86
2016-07-26T11:44:18.233Z,56.57
2016-07-26T11:45:18.451Z,56.76
2016-07-26T11:46:18.276Z,56.47
2016-07-26T11:47:18.299Z,56.27
2016-07-26T11:48:19.042Z,56.05
2016-07-26T11:50:18.332Z,56.54
2016-07-26T11:51:18.341Z,56.25
2016-07-26T11:52:18.366Z,56.74
2016-07-26T11:53:18.589Z,56.74
2016-07-26T11:54:18.391Z,56.93
2016-07-26T11:55:19.203Z,56.05
2016-07-26T11:57:18.457Z,55.27
2016-07-26T11:58:18.471Z,56.03
2016-07-26T11:59:18.477Z,55.96
2016-07-26T12:00:19.228Z,56.61
2016-07-26T12:01:19.233Z,56.22
2016-07-26T12:02:19.249Z,56.81
2016-07-26T12:03:18.536Z,56.71
2016-07-26T12:05:18.569Z,57.59
2016-07-26T12:06:18.594Z,56.22
2016-07-26T12:07:18.600Z,56.81
2016-07-26T12:08:18.643Z,55.83
2016-07-26T12:09:18.640Z,55.83
2016-07-26T12:10:18.671Z,56.22
2016-07-26T12:11:18.870Z,55.93
2016-07-26T12:12:19.420Z,55.74
2016-07-26T12:13:19.428Z,56.03
2016-07-26T12:14:19.652Z,55.83
2016-07-26T12:15:18.831Z,55.8
2016-07-26T12:16:18.740Z,56.1
2016-07-26T12:17:19.163Z,56.2
2016-07-26T12:18:18.787Z,55.8
2016-07-26T12:19:18.800Z,56
2016-07-26T12:21:19.885Z,56.59
2016-07-26T12:22:18.839Z,56.68
2016-07-26T12:23:18.863Z,57.33
2016-07-26T12:24:19.988Z,56.95
2016-07-26T12:25:19.097Z,58.43
2016-07-26T12:26:18.899Z,58.62
2016-07-26T12:27:19.315Z,57.82
2016-07-26T12:28:18.927Z,58.4
2016-07-26T12:29:19.185Z,57.33
2016-07-26T12:30:19.431Z,56.65
2016-07-26T12:31:18.971Z,56.85
2016-07-26T12:33:19.245Z,57.33
2016-07-26T12:35:19.501Z,57.72
2016-07-26T12:36:19.998Z,57.82
2016-07-26T12:37:19.833Z,57.72
2016-07-26T12:38:34.153Z,58.5
2016-07-26T12:39:19.835Z,58.4
2016-07-26T12:40:19.125Z,58.5
2016-07-26T12:42:19.151Z,58.89
2016-07-26T12:43:19.159Z,58.79
2016-07-26T12:44:19.180Z,58.59
2016-07-26T12:45:19.185Z,58.98
2016-07-26T12:46:19.215Z,58.69
2016-07-26T12:47:19.349Z,58.89
2016-07-26T12:50:20.002Z,58.79
2016-07-26T12:51:19.289Z,58.69
2016-07-26T12:52:19.296Z,57.85
2016-07-26T12:53:20.052Z,58.89
2016-07-26T12:54:19.329Z,59.08
2016-07-26T12:55:19.691Z,59.28
2016-07-26T12:56:19.560Z,59.28
2016-07-26T12:57:19.383Z,60.05
2016-07-26T12:58:19.619Z,59.67
2016-07-26T12:59:19.409Z,59.47
2016-07-26T13:00:20.163Z,59.86
2016-07-26T13:01:19.445Z,59.86
2016-07-26T13:02:19.672Z,59.95
2016-07-26T13:03:19.471Z,60.25
2016-07-26T13:05:20.239Z,60.05
2016-07-26T13:06:19.718Z,60.35
2016-07-26T13:07:19.524Z,60.38
2016-07-26T13:08:19.541Z,60.74
2016-07-26T13:09:19.555Z,59.99
2016-07-26T13:10:19.591Z,59.69
2016-07-26T13:11:19.598Z,59.76
2016-07-26T13:12:19.604Z,60.08
2016-07-26T13:13:20.562Z,59.79
2016-07-26T13:14:19.632Z,60.47
2016-07-26T13:15:19.671Z,60.47
2016-07-26T13:16:19.667Z,60.57
2016-07-26T13:17:19.678Z,61.05
2016-07-26T13:18:20.646Z,60.96
2016-07-26T13:20:20.462Z,60.38
2016-07-26T13:21:19.742Z,61.35
2016-07-26T13:22:19.759Z,61.15
2016-07-26T13:23:19.781Z,61.44
2016-07-26T13:24:20.517Z,60.77
2016-07-26T13:25:19.801Z,60.28
2016-07-26T13:26:20.556Z,60.38
2016-07-26T13:27:20.569Z,60.08
2016-07-26T13:28:19.932Z,59.82
2016-07-26T13:29:20.647Z,60.7